createdAt,value
2018-07-28T20:40:52.874Z,48.70
2018-07-28T20:43:24.227Z,48.09
2018-07-28T20:45:55.674Z,47.94
2018-07-28T20:48:27.073Z,48.29
2018-07-28T20:50:58.500Z,47.97
2018-07-28T20:53:29.823Z,47.95
2018-07-28T20:56:01.171Z,48.24
2018-07-28T21:02:56.660Z,48.30
2018-07-28T21:05:27.912Z,48.33
2018-07-28T21:07:59.498Z,47.97
2018-07-28T21:10:30.889Z,48.40
2018-07-28T21:13:02.371Z,49.00
2018-07-28T21:15:33.666Z,48.69
2018-07-28T21:18:05.039Z,48.71
2018-07-28T21:20:36.454Z,49.15
2018-07-28T21:23:07.746Z,49.01
2018-07-28T21:25:39.027Z,49.04
2018-07-28T21:28:10.316Z,49.10
2018-07-28T21:30:41.728Z,49.72
2018-07-28T21:33:12.991Z,49.11
2018-07-28T21:35:44.313Z,49.49
2018-07-28T21:38:20.560Z,49.79
2018-07-28T21:40:51.980Z,50.20
2018-07-28T21:43:23.302Z,49.59
2018-07-28T21:45:54.652Z,49.21
2018-07-28T21:48:26.111Z,48.74
2018-07-28T21:50:57.457Z,48.31
2018-07-28T21:53:28.821Z,48.30
2018-07-28T21:56:00.186Z,47.74
2018-07-28T21:58:31.456Z,47.96
2018-07-28T22:01:09.406Z,47.83
2018-07-28T22:03:43.030Z,48.35
2018-07-28T22:06:14.710Z,48.21
2018-07-28T22:08:46.726Z,48.57
2018-07-28T22:11:18.052Z,47.41
2018-07-28T22:13:49.280Z,47.79
2018-07-28T22:16:20.565Z,48.11
2018-07-28T22:18:51.897Z,47.31
2018-07-28T22:21:23.254Z,47.54
2018-07-28T22:23:54.624Z,47.76
2018-07-28T22:26:25.943Z,48.97
2018-07-28T22:28:57.286Z,49.61
2018-07-28T22:31:28.667Z,49.58
2018-07-28T22:33:59.974Z,48.94
2018-07-28T22:36:31.246Z,48.81
2018-07-28T22:39:02.679Z,48.74
2018-07-28T22:41:33.944Z,48.72
2018-07-28T22:44:05.307Z,49.35
2018-07-28T22:46:36.623Z,48.98
2018-07-28T22:49:07.879Z,48.44
2018-07-28T22:51:39.369Z,47.61
2018-07-28T22:54:10.651Z,47.16
2018-07-28T22:56:41.942Z,46.30
2018-07-28T22:59:13.184Z,46.53
2018-07-28T23:01:44.690Z,46.75
2018-07-28T23:04:15.963Z,46.55
2018-07-28T23:06:47.266Z,46.41
2018-07-28T23:09:18.574Z,46.17
2018-07-28T23:11:49.948Z,46.58
2018-07-28T23:14:21.238Z,46.94
2018-07-28T23:16:52.506Z,46.99
2018-07-28T23:19:23.704Z,46.90
2018-07-28T23:21:54.986Z,46.37
2018-07-28T23:24:26.363Z,46.62
2018-07-28T23:26:57.682Z,46.73
2018-07-28T23:29:29.007Z,47.18
2018-07-28T23:32:00.302Z,47.16
2018-07-28T23:34:32.335Z,46.65
2018-07-28T23:37:03.632Z,46.63
2018-07-28T23:39:34.924Z,47.05
2018-07-28T23:42:06.347Z,47.47
2018-07-28T23:44:37.617Z,47.09
2018-07-28T23:47:08.888Z,46.97
2018-07-28T23:49:40.088Z,47.40
2018-07-28T23:52:11.374Z,47.18
2018-07-28T23:54:42.704Z,47.47
2018-07-28T23:57:14.021Z,47.57
2018-07-28T23:59:45.479Z,47.64
